createdAt,value
2022-12-27T00:01:40.928Z,7.10
2022-12-27T00:06:55.118Z,7.10
2022-12-27T00:12:00.131Z,7.10
2022-12-27T00:17:06.608Z,7.10
2022-12-27T00:22:14.377Z,7.10
2022-12-27T00:27:27.912Z,7.00
2022-12-27T00:32:33.103Z,7.00
2022-12-27T00:37:44.996Z,7.00
2022-12-27T00:42:48.563Z,7.00
2022-12-27T00:47:55.155Z,7.20
2022-12-27T00:53:02.084Z,6.80
2022-12-27T00:58:06.816Z,6.50
2022-12-27T01:03:17.593Z,6.40
2022-12-27T01:08:22.835Z,6.30
2022-12-27T01:13:26.760Z,6.20
2022-12-27T01:18:29.958Z,6.10
2022-12-27T01:23:33.427Z,6.10
2022-12-27T01:28:41.318Z,6.20
2022-12-27T01:33:46.869Z,6.10
2022-12-27T01:38:50.774Z,6.10
2022-12-27T01:43:57.575Z,6.10
2022-12-27T01:49:05.236Z,6.00
2022-12-27T01:54:09.111Z,6.00
2022-12-27T01:59:13.327Z,5.90
2022-12-27T02:04:29.402Z,5.90
2022-12-27T02:09:33.477Z,5.90
2022-12-27T02:14:47.108Z,5.90
2022-12-27T02:19:54.471Z,5.80
2022-12-27T02:24:59.001Z,5.90
2022-12-27T02:30:05.120Z,5.90
2022-12-27T02:35:18.908Z,5.80
2022-12-27T02:40:40.064Z,5.80
2022-12-27T02:46:05.011Z,5.80
2022-12-27T02:51:27.230Z,5.80
2022-12-27T02:56:47.645Z,5.90
2022-12-27T03:02:09.979Z,5.80
2022-12-27T03:07:20.639Z,5.80
2022-12-27T03:12:42.364Z,5.40
2022-12-27T03:17:48.793Z,5.40
2022-12-27T03:23:13.602Z,5.50
2022-12-27T03:28:35.291Z,5.30
2022-12-27T03:33:39.630Z,5.30
2022-12-27T03:54:19.054Z,4.60
2022-12-27T05:13:51.563Z,3.10
2022-12-27T05:18:55.052Z,3.30
2022-12-27T05:24:17.223Z,3.40
2022-12-27T05:49:44.114Z,3.10
2022-12-27T06:05:07.812Z,2.80
2022-12-27T06:10:12.195Z,2.80
2022-12-27T06:15:17.468Z,2.60
2022-12-27T06:25:24.896Z,2.60
2022-12-27T06:30:31.600Z,2.40
2022-12-27T07:06:34.685Z,2.20
2022-12-27T07:11:39.472Z,2.20
2022-12-27T07:16:42.756Z,2.20
2022-12-27T07:21:48.701Z,1.80
2022-12-27T07:27:04.412Z,1.40
2022-12-27T07:32:08.264Z,2.20
2022-12-27T12:29:17.497Z,6.60
2022-12-27T12:34:24.442Z,6.70
2022-12-27T13:00:33.160Z,6.20
2022-12-27T13:05:54.770Z,6.20
2022-12-27T13:11:02.200Z,6.10
2022-12-27T13:16:10.861Z,6.20
2022-12-27T13:21:26.199Z,6.30
2022-12-27T13:26:30.045Z,6.50
2022-12-27T13:31:45.034Z,6.60
2022-12-27T13:36:48.701Z,6.60
2022-12-27T13:41:52.281Z,6.80
2022-12-27T13:46:59.797Z,6.90
2022-12-27T13:52:04.227Z,6.90
2022-12-27T13:57:18.409Z,6.60
2022-12-27T14:02:25.898Z,6.60
2022-12-27T14:07:48.181Z,6.50
2022-12-27T14:12:56.401Z,6.60
2022-12-27T14:18:01.974Z,6.50
2022-12-27T14:23:06.534Z,6.40
2022-12-27T14:28:09.963Z,6.40
2022-12-27T14:33:23.867Z,6.40
2022-12-27T14:38:38.098Z,6.30
2022-12-27T14:43:45.258Z,6.20
2022-12-27T14:48:49.916Z,6.00
2022-12-27T14:53:53.471Z,6.00
2022-12-27T14:58:59.735Z,5.80
2022-12-27T15:04:17.415Z,5.80
2022-12-27T15:09:31.556Z,5.80
2022-12-27T15:14:48.383Z,5.50
2022-12-27T15:19:52.906Z,5.40
2022-12-27T15:24:59.487Z,5.30
2022-12-27T15:30:13.475Z,5.10
2022-12-27T15:35:32.787Z,5.00
2022-12-27T15:40:58.590Z,4.90
2022-12-27T15:46:05.122Z,4.70
2022-12-27T15:51:19.953Z,4.50
2022-12-27T15:56:27.206Z,4.40
2022-12-27T16:01:41.425Z,4.20
2022-12-27T16:06:45.536Z,4.20
2022-12-27T16:12:00.042Z,4.20
2022-12-27T16:17:19.873Z,4.10
2022-12-27T16:22:48.550Z,4.10
2022-12-27T16:28:11.548Z,4.00
2022-12-27T16:33:27.895Z,3.90
2022-12-27T16:38:37.849Z,3.80
2022-12-27T16:43:59.404Z,3.70
2022-12-27T17:04:53.712Z,3.50
2022-12-27T17:09:57.869Z,3.50
2022-12-27T17:15:15.363Z,3.70
2022-12-27T17:25:30.060Z,3.30
2022-12-27T17:35:49.039Z,4.20
2022-12-27T18:02:01.764Z,4.70
2022-12-27T18:17:28.966Z,4.50
2022-12-27T18:22:40.476Z,3.90
2022-12-27T18:27:47.023Z,4.00
2022-12-27T18:37:57.496Z,4.20
2022-12-27T18:43:03.268Z,4.20
2022-12-27T18:48:16.342Z,4.20
2022-12-27T18:53:22.276Z,4.20
2022-12-27T18:58:31.023Z,4.20
2022-12-27T19:03:44.566Z,4.20
2022-12-27T19:08:50.034Z,4.30
2022-12-27T19:13:53.453Z,4.20
2022-12-27T19:18:58.009Z,4.20
2022-12-27T19:24:02.316Z,4.30
2022-12-27T19:29:06.535Z,4.20
2022-12-27T19:34:10.080Z,4.20
2022-12-27T19:39:13.085Z,4.10
2022-12-27T19:44:18.749Z,4.00
2022-12-27T19:49:41.596Z,4.00
2022-12-27T19:54:51.722Z,3.90
2022-12-27T19:59:59.049Z,3.90
2022-12-27T20:05:04.842Z,3.90
2022-12-27T20:10:09.233Z,3.90
2022-12-27T20:15:13.762Z,3.70
2022-12-27T20:20:22.316Z,3.60
2022-12-27T20:25:32.732Z,3.70
2022-12-27T20:30:36.560Z,3.70
2022-12-27T20:35:42.369Z,3.60
2022-12-27T20:40:46.305Z,3.50
2022-12-27T20:55:59.616Z,3.30
2022-12-27T21:01:06.894Z,3.30
2022-12-27T21:06:20.676Z,3.20
2022-12-27T21:11:24.778Z,3.10
2022-12-27T21:16:39.295Z,3.10
2022-12-27T21:21:47.883Z,3.10
2022-12-27T21:26:56.209Z,3.00
2022-12-27T21:32:04.257Z,3.00
2022-12-27T21:37:13.495Z,3.00
2022-12-27T21:42:18.940Z,2.90
2022-12-27T21:47:24.322Z,3.00
2022-12-27T21:52:28.956Z,2.80
2022-12-27T21:57:38.633Z,2.80
2022-12-27T22:02:57.272Z,2.80
2022-12-27T22:08:02.074Z,2.60
